createdAt,value
2018-05-01T00:00:30.980Z,17.72
2018-05-01T00:02:58.953Z,17.71
2018-05-01T00:05:26.972Z,17.45
2018-05-01T00:07:54.948Z,17.40
2018-05-01T00:10:22.978Z,17.38
2018-05-01T00:12:51.000Z,17.48
2018-05-01T00:15:18.981Z,17.48
2018-05-01T00:17:47.071Z,17.24
2018-05-01T00:20:15.096Z,17.09
2018-05-01T00:22:43.103Z,17.24
2018-05-01T00:25:11.094Z,17.36
2018-05-01T00:27:39.097Z,16.56
2018-05-01T00:30:07.069Z,16.33
2018-05-01T00:32:35.202Z,16.07
2018-05-01T00:35:03.241Z,16.09
2018-05-01T00:37:31.285Z,15.76
2018-05-01T00:39:59.315Z,14.93
2018-05-01T00:42:27.314Z,15.70
2018-05-01T00:44:55.345Z,16.12
2018-05-01T00:47:23.389Z,15.93
2018-05-01T00:49:51.382Z,16.17
2018-05-01T00:52:31.325Z,16.19
2018-05-01T00:54:59.351Z,16.48
2018-05-01T00:57:28.522Z,16.40
2018-05-01T00:59:56.508Z,16.19
2018-05-01T01:02:24.549Z,15.97
2018-05-01T01:04:52.566Z,16.24
2018-05-01T01:07:20.591Z,15.62
2018-05-01T01:09:48.657Z,15.88
2018-05-01T01:12:16.660Z,16.25
2018-05-01T01:14:44.736Z,15.81
2018-05-01T01:17:12.811Z,15.75
2018-05-01T01:19:40.896Z,15.43
2018-05-01T01:22:08.940Z,15.82
2018-05-01T01:24:37.015Z,16.14
2018-05-01T01:27:05.070Z,16.18
2018-05-01T01:29:33.077Z,16.29
2018-05-01T01:32:17.975Z,16.25
2018-05-01T01:34:45.903Z,16.38
2018-05-01T01:37:14.600Z,16.40
2018-05-01T01:39:42.209Z,16.25
2018-05-01T01:42:09.707Z,16.32
2018-05-01T01:44:37.188Z,16.28
2018-05-01T01:47:04.664Z,16.30
2018-05-01T01:49:32.150Z,16.30
2018-05-01T01:51:59.647Z,16.34
2018-05-01T01:54:27.194Z,16.33
2018-05-01T01:56:54.692Z,16.23
2018-05-01T01:59:22.184Z,16.28
2018-05-01T02:01:49.679Z,16.30
2018-05-01T02:04:17.085Z,16.24
2018-05-01T02:06:44.670Z,16.24
2018-05-01T02:09:12.176Z,16.20
2018-05-01T02:11:39.605Z,16.24
2018-05-01T02:14:07.062Z,16.17
2018-05-01T02:16:34.559Z,16.20
2018-05-01T02:19:02.115Z,16.18
2018-05-01T02:21:29.623Z,16.16
2018-05-01T02:23:57.060Z,16.13
2018-05-01T02:26:24.546Z,15.99
2018-05-01T02:28:51.984Z,15.75
2018-05-01T02:31:19.526Z,15.94
2018-05-01T02:33:46.952Z,16.09
2018-05-01T02:36:14.491Z,16.00
2018-05-01T02:38:42.222Z,16.13
2018-05-01T02:41:09.776Z,16.10
2018-05-01T02:43:37.156Z,16.09
2018-05-01T02:46:04.584Z,16.10
2018-05-01T02:48:32.131Z,16.07
2018-05-01T02:50:59.632Z,15.98
2018-05-01T02:53:27.125Z,16.01
2018-05-01T02:55:54.623Z,15.96
2018-05-01T02:58:22.173Z,15.92
2018-05-01T03:00:49.659Z,15.96
2018-05-01T03:03:17.222Z,15.95
2018-05-01T03:05:44.645Z,15.88
2018-05-01T03:08:12.137Z,15.85
2018-05-01T03:10:39.591Z,14.73
2018-05-01T03:13:07.085Z,14.06
2018-05-01T03:15:34.542Z,13.98
2018-05-01T03:18:02.086Z,13.96
2018-05-01T03:20:29.576Z,13.75
2018-05-01T03:22:57.038Z,14.41
2018-05-01T03:25:24.644Z,14.63
2018-05-01T03:27:51.993Z,14.71
2018-05-01T03:30:19.469Z,14.66
2018-05-01T03:32:46.953Z,14.85
2018-05-01T03:35:14.414Z,15.06
2018-05-01T03:37:41.879Z,14.93
2018-05-01T03:40:09.760Z,15.12
2018-05-01T03:42:37.110Z,15.17
2018-05-01T03:45:04.532Z,15.15
2018-05-01T03:47:32.050Z,15.26
2018-05-01T03:49:59.537Z,15.30
2018-05-01T03:52:27.125Z,15.34
2018-05-01T03:54:54.517Z,15.33
2018-05-01T03:57:21.999Z,15.33
2018-05-01T03:59:49.485Z,15.36
2018-05-01T04:02:17.042Z,15.52
2018-05-01T04:04:45.691Z,15.63
2018-05-01T04:07:13.204Z,15.76
2018-05-01T04:09:40.660Z,15.75
2018-05-01T04:12:08.175Z,15.74
2018-05-01T04:14:35.661Z,15.84
2018-05-01T04:17:03.134Z,15.84
2018-05-01T04:19:30.589Z,15.55
2018-05-01T04:21:58.053Z,15.79
2018-05-01T04:24:25.438Z,15.90
2018-05-01T04:26:52.959Z,16.14
2018-05-01T04:29:20.411Z,16.17
2018-05-01T04:31:47.910Z,16.19
2018-05-01T04:34:15.363Z,15.73
2018-05-01T04:36:42.863Z,16.00
2018-05-01T04:39:10.432Z,16.29
2018-05-01T04:41:38.382Z,16.53
2018-05-01T04:44:05.916Z,16.77
2018-05-01T04:46:33.406Z,16.73
2018-05-01T04:49:00.842Z,16.53
2018-05-01T04:51:28.312Z,16.11
2018-05-01T04:53:55.788Z,16.08
2018-05-01T04:56:23.246Z,15.96
2018-05-01T04:58:50.794Z,15.94
2018-05-01T05:01:18.290Z,16.17
2018-05-01T05:03:45.875Z,15.91
2018-05-01T05:06:13.439Z,15.84
2018-05-01T05:08:40.949Z,15.96
2018-05-01T05:11:08.405Z,16.03
2018-05-01T05:16:34.049Z,16.14
2018-05-01T05:19:01.527Z,16.51
2018-05-01T05:21:29.014Z,17.54
2018-05-01T05:23:57.468Z,18.00
2018-05-01T05:26:25.023Z,18.31
2018-05-01T05:28:52.859Z,18.58
2018-05-01T05:31:20.317Z,18.86
2018-05-01T05:33:47.872Z,18.74
2018-05-01T05:36:15.344Z,18.62
2018-05-01T05:38:43.478Z,18.82
2018-05-01T05:41:10.902Z,19.24
2018-05-01T05:43:38.813Z,19.55
2018-05-01T05:46:06.399Z,19.82
2018-05-01T05:48:33.922Z,20.11
2018-05-01T05:51:01.419Z,19.43
2018-05-01T05:53:28.952Z,20.03
2018-05-01T05:55:56.505Z,20.02
2018-05-01T05:58:24.120Z,19.78
2018-05-01T06:00:51.677Z,20.09
2018-05-01T06:03:19.175Z,19.90
2018-05-01T06:05:46.670Z,19.84
2018-05-01T06:08:14.201Z,19.96
2018-05-01T06:10:41.692Z,20.36
2018-05-01T06:13:09.214Z,21.03
2018-05-01T06:15:36.769Z,20.95
2018-05-01T06:18:04.363Z,20.99
2018-05-01T06:20:31.865Z,20.09
2018-05-01T06:22:59.304Z,20.93
2018-05-01T06:25:26.913Z,20.39
2018-05-01T06:27:54.414Z,20.44
2018-05-01T06:30:21.920Z,20.35
2018-05-01T06:32:49.398Z,20.96
2018-05-01T06:35:16.863Z,21.00
2018-05-01T06:37:44.344Z,22.13
2018-05-01T06:40:11.819Z,22.28
2018-05-01T06:42:39.300Z,22.64
2018-05-01T06:45:07.783Z,22.66
2018-05-01T06:47:35.294Z,23.41
2018-05-01T06:50:02.786Z,23.54
2018-05-01T06:52:30.298Z,23.53
2018-05-01T06:54:57.774Z,23.91
2018-05-01T06:57:25.299Z,22.81
2018-05-01T06:59:52.766Z,22.99
2018-05-01T07:02:20.210Z,22.94
2018-05-01T07:04:47.545Z,24.49
2018-05-01T07:07:14.895Z,24.11
2018-05-01T07:09:42.376Z,23.56
2018-05-01T07:12:09.953Z,24.58
2018-05-01T07:14:37.521Z,24.17
2018-05-01T07:17:05.008Z,25.16
2018-05-01T07:19:32.540Z,24.62
2018-05-01T07:22:00.059Z,24.90
2018-05-01T07:24:27.535Z,25.02
2018-05-01T07:26:55.004Z,25.89
2018-05-01T07:29:22.473Z,26.06
2018-05-01T07:31:49.944Z,25.30
2018-05-01T07:34:17.422Z,25.22
2018-05-01T07:36:44.947Z,24.95
2018-05-01T07:39:12.501Z,26.20
2018-05-01T07:41:39.990Z,25.75
2018-05-01T07:44:08.250Z,25.43
2018-05-01T07:46:36.632Z,26.43
2018-05-01T07:49:04.185Z,25.92
2018-05-01T07:51:31.703Z,26.31
2018-05-01T07:53:59.236Z,27.16
2018-05-01T07:56:26.743Z,27.98
2018-05-01T07:58:54.313Z,28.27
2018-05-01T08:01:22.586Z,27.31
2018-05-01T08:03:50.153Z,28.12
2018-05-01T08:06:18.105Z,28.95
2018-05-01T08:08:46.046Z,29.10
2018-05-01T08:11:14.261Z,28.07
2018-05-01T08:13:42.022Z,27.31
2018-05-01T08:16:10.099Z,27.78
2018-05-01T08:18:38.544Z,28.22
2018-05-01T08:21:06.758Z,28.62
2018-05-01T08:23:34.879Z,28.92
2018-05-01T08:26:02.355Z,28.97
2018-05-01T08:28:29.832Z,28.76
2018-05-01T08:30:57.282Z,29.53
2018-05-01T08:33:24.842Z,30.06
2018-05-01T08:35:52.277Z,30.00
2018-05-01T08:38:19.727Z,30.55
2018-05-01T08:40:47.285Z,28.69
2018-05-01T08:43:14.772Z,28.98
2018-05-01T08:45:42.266Z,29.84
2018-05-01T08:48:10.183Z,31.03
2018-05-01T08:50:37.730Z,31.09
2018-05-01T08:53:05.219Z,30.75
2018-05-01T08:55:32.723Z,31.30
2018-05-01T08:58:00.259Z,30.86
2018-05-01T09:00:27.868Z,31.11
2018-05-01T09:02:55.331Z,31.05
2018-05-01T09:05:23.959Z,30.91
2018-05-01T09:07:51.519Z,30.94
2018-05-01T09:10:19.074Z,31.31
2018-05-01T09:12:46.526Z,31.26
2018-05-01T09:15:14.979Z,31.94
2018-05-01T09:17:42.604Z,30.12
2018-05-01T09:20:10.209Z,31.05
2018-05-01T09:22:37.736Z,31.52
2018-05-01T09:25:05.223Z,32.75
2018-05-01T09:27:32.744Z,32.47
2018-05-01T09:30:00.304Z,33.29
2018-05-01T09:32:27.755Z,33.23
2018-05-01T09:34:55.220Z,33.59
2018-05-01T09:37:22.697Z,31.69
2018-05-01T09:39:50.029Z,32.73
2018-05-01T09:42:17.543Z,32.59
2018-05-01T09:44:45.006Z,33.33
2018-05-01T09:47:12.530Z,33.06
2018-05-01T09:49:40.334Z,34.50
2018-05-01T09:52:07.901Z,34.81
2018-05-01T09:54:35.962Z,34.31
2018-05-01T09:57:04.080Z,34.57
2018-05-01T09:59:32.067Z,34.25
2018-05-01T10:02:00.115Z,33.93
2018-05-01T10:04:28.106Z,34.19
2018-05-01T10:06:56.302Z,33.27
2018-05-01T10:09:24.244Z,32.59
2018-05-01T10:11:52.254Z,33.08
2018-05-01T10:14:20.339Z,33.71
2018-05-01T10:16:48.344Z,35.11
2018-05-01T10:19:16.361Z,34.18
2018-05-01T10:21:44.361Z,34.75
2018-05-01T10:24:12.375Z,33.87
2018-05-01T10:26:40.419Z,33.83
2018-05-01T10:29:08.517Z,34.23
2018-05-01T10:31:36.510Z,34.90
2018-05-01T10:34:04.470Z,34.73
2018-05-01T10:36:32.441Z,33.56
2018-05-01T10:39:00.574Z,34.27
2018-05-01T10:41:28.548Z,34.67
2018-05-01T10:43:57.056Z,35.09
2018-05-01T10:46:25.776Z,34.70
2018-05-01T10:48:53.943Z,34.72
2018-05-01T10:51:22.391Z,35.79
2018-05-01T10:53:50.406Z,37.02
2018-05-01T10:56:18.413Z,36.59
2018-05-01T10:58:46.441Z,34.24
2018-05-01T11:01:14.391Z,35.29
2018-05-01T11:03:42.443Z,36.20
2018-05-01T11:06:10.504Z,35.53
2018-05-01T11:08:38.517Z,35.45
2018-05-01T11:11:06.515Z,36.48
2018-05-01T11:13:34.529Z,36.77
2018-05-01T11:16:02.646Z,37.26
2018-05-01T11:18:30.700Z,36.93
2018-05-01T11:20:58.698Z,33.62
2018-05-01T11:23:26.711Z,33.30
2018-05-01T11:25:54.628Z,34.78
2018-05-01T11:28:22.646Z,36.21
2018-05-01T11:30:50.700Z,35.84
2018-05-01T11:33:18.736Z,36.95
2018-05-01T11:35:46.753Z,37.51
2018-05-01T11:38:14.756Z,38.24
2018-05-01T11:40:42.744Z,36.89
2018-05-01T11:43:10.809Z,35.16
2018-05-01T11:45:38.866Z,37.00
2018-05-01T11:48:06.968Z,37.21
2018-05-01T11:50:35.015Z,36.90
2018-05-01T11:53:03.597Z,36.44
2018-05-01T11:55:31.675Z,35.12
2018-05-01T11:57:59.709Z,32.95
2018-05-01T12:00:27.776Z,32.56
2018-05-01T12:02:55.833Z,32.66
2018-05-01T12:05:23.802Z,33.45
2018-05-01T12:07:51.736Z,33.19
2018-05-01T12:10:19.831Z,34.23
2018-05-01T12:12:47.868Z,35.28
2018-05-01T12:15:15.926Z,35.49
2018-05-01T12:17:43.977Z,34.58
2018-05-01T12:20:12.086Z,34.67
2018-05-01T12:22:40.150Z,36.01
2018-05-01T12:25:08.138Z,33.51
2018-05-01T12:27:36.194Z,34.36
2018-05-01T12:30:04.403Z,34.70
2018-05-01T12:32:32.469Z,35.78
2018-05-01T12:35:00.495Z,35.23
2018-05-01T12:37:28.525Z,33.27
2018-05-01T12:39:56.535Z,33.71
2018-05-01T12:42:24.589Z,34.49
2018-05-01T12:44:52.642Z,34.78
2018-05-01T12:47:20.713Z,35.45
2018-05-01T12:49:48.688Z,35.47
2018-05-01T12:52:16.685Z,36.37
2018-05-01T12:54:45.256Z,34.33
2018-05-01T12:57:13.321Z,34.03
2018-05-01T12:59:41.277Z,34.37
2018-05-01T13:02:09.296Z,34.63
2018-05-01T13:04:37.321Z,34.64
2018-05-01T13:07:05.291Z,35.61
2018-05-01T13:09:33.312Z,35.43
2018-05-01T13:12:01.382Z,35.62
2018-05-01T13:14:29.384Z,34.91
2018-05-01T13:16:57.417Z,34.51
2018-05-01T13:19:25.570Z,35.31
2018-05-01T13:21:53.635Z,35.80
2018-05-01T13:24:21.830Z,36.16
2018-05-01T13:26:49.911Z,35.13
2018-05-01T13:29:17.927Z,35.45
2018-05-01T13:31:45.872Z,34.82
2018-05-01T13:34:13.929Z,33.52
2018-05-01T13:36:41.909Z,33.06
2018-05-01T13:39:09.924Z,32.61
2018-05-01T13:41:37.992Z,32.59
2018-05-01T13:44:06.029Z,31.02
2018-05-01T13:46:34.018Z,30.73
2018-05-01T13:49:02.073Z,30.22
2018-05-01T13:51:30.176Z,30.57
2018-05-01T13:53:58.194Z,29.44
2018-05-01T13:56:26.365Z,30.06
2018-05-01T13:58:54.403Z,29.53
2018-05-01T14:01:22.548Z,29.32
2018-05-01T14:03:50.518Z,29.55
2018-05-01T14:06:18.582Z,29.97
2018-05-01T14:08:46.602Z,29.70
2018-05-01T14:11:14.610Z,29.30
2018-05-01T14:13:42.632Z,29.45
2018-05-01T14:16:10.700Z,29.83
2018-05-01T14:18:38.789Z,30.02
2018-05-01T14:21:06.825Z,30.23
2018-05-01T14:23:34.770Z,29.87
2018-05-01T14:26:02.740Z,29.63
2018-05-01T14:28:30.652Z,29.83
2018-05-01T14:30:58.668Z,29.65
2018-05-01T14:33:26.728Z,29.99
2018-05-01T14:35:54.736Z,29.88
2018-05-01T14:38:22.690Z,30.02
2018-05-01T14:40:50.776Z,29.76
2018-05-01T14:43:18.820Z,30.08
2018-05-01T14:45:46.984Z,29.83
2018-05-01T14:48:14.966Z,30.02
2018-05-01T14:50:42.891Z,29.10
2018-05-01T14:53:10.916Z,29.02
2018-05-01T14:55:38.959Z,28.91
2018-05-01T14:58:07.257Z,28.92
2018-05-01T15:00:35.287Z,28.88
2018-05-01T15:03:05.364Z,29.37
2018-05-01T15:05:33.362Z,29.14
2018-05-01T15:08:01.560Z,29.31
2018-05-01T15:10:29.618Z,28.83
2018-05-01T15:12:57.617Z,28.77
2018-05-01T15:15:25.708Z,28.41
2018-05-01T15:17:53.834Z,28.57
2018-05-01T15:20:21.815Z,28.57
2018-05-01T15:22:49.812Z,28.36
2018-05-01T15:25:17.812Z,28.19
2018-05-01T15:27:45.855Z,28.65
2018-05-01T15:30:13.927Z,28.61
2018-05-01T15:32:41.903Z,28.63
2018-05-01T15:35:09.906Z,27.98
2018-05-01T15:37:38.016Z,27.49
2018-05-01T15:40:05.942Z,27.59
2018-05-01T15:42:33.981Z,27.68
2018-05-01T15:45:01.980Z,27.38
2018-05-01T15:47:30.066Z,27.15
2018-05-01T15:49:58.107Z,26.48
2018-05-01T15:52:26.058Z,26.50
2018-05-01T15:54:54.160Z,26.51
2018-05-01T15:57:22.227Z,26.09
2018-05-01T15:59:50.612Z,26.20
2018-05-01T16:02:18.594Z,26.22
2018-05-01T16:04:46.655Z,26.25
2018-05-01T16:07:14.600Z,25.63
2018-05-01T16:09:42.603Z,25.90
2018-05-01T16:12:10.654Z,25.35
2018-05-01T16:14:38.712Z,25.42
2018-05-01T16:17:06.769Z,25.28
2018-05-01T16:19:34.744Z,25.35
2018-05-01T16:22:02.833Z,25.08
2018-05-01T16:24:30.941Z,25.18
2018-05-01T16:26:58.881Z,25.67
2018-05-01T16:29:26.940Z,25.63
2018-05-01T16:31:55.039Z,25.51
2018-05-01T16:34:23.161Z,25.22
2018-05-01T16:36:51.218Z,25.01
2018-05-01T16:39:19.242Z,25.09
2018-05-01T16:41:47.322Z,24.85
2018-05-01T16:44:15.359Z,24.98
2018-05-01T16:46:43.400Z,25.06
2018-05-01T16:49:11.426Z,25.15
2018-05-01T16:51:39.477Z,24.77
2018-05-01T16:54:07.490Z,24.22
2018-05-01T16:56:35.589Z,24.13
2018-05-01T16:59:03.609Z,24.12
2018-05-01T17:01:32.018Z,24.27
2018-05-01T17:04:00.098Z,24.33
2018-05-01T17:06:28.178Z,23.95
2018-05-01T17:08:56.382Z,23.85
2018-05-01T17:11:24.396Z,24.28
2018-05-01T17:13:52.318Z,24.53
2018-05-01T17:16:20.342Z,24.58
2018-05-01T17:18:48.398Z,24.56
2018-05-01T17:21:16.420Z,24.52
2018-05-01T17:23:44.402Z,24.49
2018-05-01T17:26:12.345Z,24.59
2018-05-01T17:28:40.410Z,24.56
2018-05-01T17:31:08.476Z,24.04
2018-05-01T17:33:36.461Z,24.36
2018-05-01T17:36:04.438Z,24.53
2018-05-01T17:38:32.398Z,24.22
2018-05-01T17:41:00.511Z,23.86
2018-05-01T17:43:28.672Z,23.76
2018-05-01T17:45:56.699Z,23.88
2018-05-01T17:48:24.833Z,23.77
2018-05-01T17:50:52.878Z,23.81
2018-05-01T17:53:20.862Z,23.99
2018-05-01T17:55:48.858Z,24.04
2018-05-01T17:58:16.935Z,24.00
2018-05-01T18:00:44.976Z,23.82
2018-05-01T18:03:13.054Z,23.50
2018-05-01T18:05:41.138Z,23.77
2018-05-01T18:08:09.192Z,23.67
2018-05-01T18:10:37.232Z,23.86
2018-05-01T18:13:05.401Z,23.84
2018-05-01T18:15:33.343Z,23.65
2018-05-01T18:18:01.389Z,23.54
2018-05-01T18:20:29.425Z,22.98
2018-05-01T18:22:57.422Z,23.09
2018-05-01T18:25:25.450Z,23.38
2018-05-01T18:27:53.518Z,23.50
2018-05-01T18:30:22.488Z,23.54
2018-05-01T18:32:50.469Z,23.50
2018-05-01T18:35:18.524Z,23.41
2018-05-01T18:37:46.491Z,22.86
2018-05-01T18:40:14.495Z,22.72
2018-05-01T18:42:42.502Z,22.95
2018-05-01T18:45:10.525Z,22.89
2018-05-01T18:47:38.495Z,23.00
2018-05-01T18:50:06.511Z,22.83
2018-05-01T18:52:34.580Z,22.23
2018-05-01T18:55:02.620Z,22.78
2018-05-01T18:57:30.746Z,22.74
2018-05-01T18:59:58.762Z,22.72
2018-05-01T19:02:26.856Z,22.74
2018-05-01T19:04:55.327Z,22.64
2018-05-01T19:07:23.341Z,22.61
2018-05-01T19:09:51.293Z,22.54
2018-05-01T19:12:19.370Z,22.47
2018-05-01T19:14:47.457Z,22.40
2018-05-01T19:17:15.438Z,22.42
2018-05-01T19:19:43.476Z,21.94
2018-05-01T19:22:11.513Z,22.12
2018-05-01T19:24:39.500Z,21.96
2018-05-01T19:27:07.527Z,21.93
2018-05-01T19:29:35.581Z,22.01
2018-05-01T19:32:03.639Z,21.64
2018-05-01T19:34:33.585Z,21.77
2018-05-01T19:37:01.648Z,21.84
2018-05-01T19:39:29.829Z,21.83
2018-05-01T19:41:59.286Z,21.93
2018-05-01T19:44:27.247Z,21.82
2018-05-01T19:46:55.280Z,21.92
2018-05-01T19:49:23.340Z,21.90
2018-05-01T19:51:51.285Z,21.65
2018-05-01T19:54:19.358Z,21.51
2018-05-01T19:56:47.346Z,21.48
2018-05-01T19:59:15.396Z,21.71
2018-05-01T20:01:43.451Z,21.50
2018-05-01T20:04:11.446Z,21.53
2018-05-01T20:06:39.886Z,21.55
2018-05-01T20:09:07.906Z,21.58
2018-05-01T20:11:35.914Z,21.60
2018-05-01T20:14:04.001Z,21.54
2018-05-01T20:16:31.990Z,21.50
2018-05-01T20:19:00.015Z,21.40
2018-05-01T20:21:28.034Z,21.32
2018-05-01T20:23:55.997Z,21.26
2018-05-01T20:26:24.036Z,21.20
2018-05-01T20:28:52.090Z,21.18
2018-05-01T20:31:20.204Z,21.17
2018-05-01T20:33:48.172Z,21.03
2018-05-01T20:36:16.195Z,20.98
2018-05-01T20:38:44.254Z,20.99
2018-05-01T20:41:12.277Z,20.93
2018-05-01T20:43:40.314Z,20.93
2018-05-01T20:46:08.416Z,20.87
2018-05-01T20:48:36.432Z,20.83
2018-05-01T20:51:04.492Z,20.79
2018-05-01T20:53:32.529Z,20.71
2018-05-01T20:56:00.580Z,20.00
2018-05-01T20:58:28.509Z,19.88
2018-05-01T21:00:56.498Z,20.34
2018-05-01T21:03:24.526Z,20.47
2018-05-01T21:05:52.560Z,20.60
2018-05-01T21:08:20.804Z,20.51
2018-05-01T21:10:48.842Z,20.47
2018-05-01T21:13:16.858Z,20.45
2018-05-01T21:15:45.286Z,20.47
2018-05-01T21:18:13.910Z,20.57
2018-05-01T21:20:42.589Z,20.66
2018-05-01T21:23:11.391Z,20.68
2018-05-01T21:25:39.768Z,20.59
2018-05-01T21:28:08.376Z,20.58
2018-05-01T21:30:36.972Z,20.66
2018-05-01T21:33:05.321Z,20.56
2018-05-01T21:35:33.716Z,20.62
2018-05-01T21:38:02.261Z,20.59
2018-05-01T21:40:30.967Z,20.33
2018-05-01T21:42:59.638Z,20.47
2018-05-01T21:45:28.237Z,20.42
2018-05-01T21:47:56.917Z,20.06
2018-05-01T21:50:25.690Z,20.38
2018-05-01T21:52:54.239Z,20.41
2018-05-01T21:55:22.557Z,20.45
2018-05-01T21:57:51.234Z,20.53
2018-05-01T22:00:19.553Z,20.49
2018-05-01T22:02:48.247Z,20.48
2018-05-01T22:05:16.772Z,20.22
2018-05-01T22:07:45.260Z,20.21
2018-05-01T22:10:13.943Z,20.18
2018-05-01T22:12:42.622Z,20.14
2018-05-01T22:15:11.110Z,20.21
2018-05-01T22:17:40.013Z,20.22
2018-05-01T22:20:08.640Z,20.30
2018-05-01T22:22:37.162Z,20.28
2018-05-01T22:25:05.766Z,20.24
2018-05-01T22:27:34.331Z,20.21
2018-05-01T22:30:02.912Z,20.26
2018-05-01T22:32:31.401Z,20.30
2018-05-01T22:34:59.974Z,20.27
2018-05-01T22:37:28.450Z,20.21
2018-05-01T22:39:56.955Z,20.17
2018-05-01T22:42:25.429Z,20.10
2018-05-01T22:44:54.104Z,19.94
2018-05-01T22:47:22.889Z,19.95
2018-05-01T22:49:51.302Z,19.87
2018-05-01T22:52:19.857Z,20.00
2018-05-01T22:54:48.439Z,20.08
2018-05-01T22:57:17.032Z,20.07
2018-05-01T22:59:45.692Z,20.03
2018-05-01T23:02:14.111Z,20.04
2018-05-01T23:04:42.666Z,20.01
2018-05-01T23:07:11.462Z,19.80
2018-05-01T23:09:40.239Z,19.77
2018-05-01T23:12:09.010Z,19.75
2018-05-01T23:14:37.921Z,19.87
2018-05-01T23:17:06.406Z,19.76
2018-05-01T23:19:35.282Z,19.76
2018-05-01T23:22:03.965Z,19.76
2018-05-01T23:24:32.863Z,19.57
2018-05-01T23:27:01.230Z,19.08
2018-05-01T23:29:29.671Z,19.37
2018-05-01T23:31:58.304Z,19.10
2018-05-01T23:34:27.097Z,19.11
2018-05-01T23:36:55.445Z,19.18
2018-05-01T23:39:24.360Z,19.24
2018-05-01T23:41:54.029Z,19.39
2018-05-01T23:44:22.657Z,19.36
2018-05-01T23:46:51.331Z,19.33
2018-05-01T23:49:20.013Z,19.41
2018-05-01T23:51:48.702Z,19.38
2018-05-01T23:54:17.559Z,19.22
2018-05-01T23:56:46.080Z,19.28
2018-05-01T23:59:15.025Z,19.38
